createdAt,value
2024-01-08T00:01:33.113Z,24.40
2024-01-08T00:04:39.992Z,20.10
2024-01-08T00:07:46.074Z,30.63
2024-01-08T00:10:53.354Z,27.52
2024-01-08T00:13:59.725Z,17.48
2024-01-08T00:17:06.696Z,3.70
2024-01-08T00:20:12.221Z,26.77
2024-01-08T00:23:25.607Z,12.98
2024-01-08T00:26:32.107Z,33.25
2024-01-08T00:29:41.291Z,27.55
2024-01-08T00:32:49.513Z,26.40
2024-01-08T00:35:57.616Z,33.33
2024-01-08T00:39:08.399Z,25.42
2024-01-08T00:42:17.714Z,22.05
2024-01-08T00:45:24.613Z,27.25
2024-01-08T00:48:31.907Z,8.52
2024-01-08T00:51:41.937Z,8.80
2024-01-08T00:54:48.198Z,11.18
2024-01-08T00:58:01.651Z,35.60
2024-01-08T01:04:13.082Z,13.18
2024-01-08T01:07:16.783Z,6.32
2024-01-08T01:10:23.994Z,23.45
2024-01-08T01:13:37.246Z,35.28
2024-01-08T01:16:58.613Z,11.10
2024-01-08T01:34:13.944Z,10.30
2024-01-08T01:41:03.813Z,9.70
2024-01-08T01:48:08.034Z,25.80
2024-01-08T01:51:49.336Z,48.30
2024-01-08T01:58:29.234Z,95.38
2024-01-08T02:01:35.156Z,88.00
2024-01-08T02:04:40.579Z,74.00
2024-01-08T02:07:46.026Z,82.22
2024-01-08T02:10:48.994Z,54.25
2024-01-08T02:16:56.649Z,97.78
2024-01-08T02:20:00.375Z,106.88
2024-01-08T02:23:08.647Z,64.50
2024-01-08T02:26:15.868Z,78.63
2024-01-08T02:29:21.659Z,32.47
2024-01-08T02:32:25.185Z,73.57
2024-01-08T02:35:28.622Z,29.17
2024-01-08T02:41:58.822Z,30.38
2024-01-08T02:45:10.848Z,10.70
2024-01-08T02:48:17.875Z,94.43
2024-01-08T02:55:05.078Z,16.02
2024-01-08T03:01:45.920Z,133.10
2024-01-08T03:05:01.120Z,25.17
2024-01-08T03:08:22.309Z,109.72
2024-01-08T03:11:47.908Z,124.20
2024-01-08T03:14:58.182Z,44.28
2024-01-08T03:22:04.674Z,32.75
2024-01-08T03:25:15.440Z,125.10
2024-01-08T03:28:21.361Z,52.05
2024-01-08T03:31:35.353Z,38.80
2024-01-08T03:34:52.740Z,20.77
2024-01-08T03:41:45.637Z,28.20
2024-01-08T03:45:10.574Z,13.70
2024-01-08T03:48:22.182Z,10.35
2024-01-08T03:51:34.058Z,16.60
2024-01-08T03:54:47.914Z,21.67
2024-01-08T03:58:05.852Z,24.30
2024-01-08T04:01:28.911Z,18.25
2024-01-08T04:04:55.000Z,66.32
2024-01-08T04:08:08.606Z,114.80
2024-01-08T04:11:19.200Z,52.03
2024-01-08T04:14:35.819Z,36.75
2024-01-08T04:17:45.820Z,50.03
2024-01-08T04:20:54.966Z,51.47
2024-01-08T04:24:02.765Z,46.20
2024-01-08T04:27:12.193Z,67.90
2024-01-08T04:30:18.580Z,46.10
2024-01-08T04:33:24.812Z,81.25
2024-01-08T04:36:31.395Z,35.08
2024-01-08T04:39:37.756Z,48.35
2024-01-08T04:42:44.035Z,51.08
2024-01-08T04:45:49.989Z,25.15
2024-01-08T04:48:56.524Z,29.38
2024-01-08T04:52:02.839Z,41.95
2024-01-08T04:55:09.601Z,24.48
2024-01-08T04:58:15.974Z,35.85
2024-01-08T05:01:22.393Z,56.35
2024-01-08T05:04:28.406Z,46.35
2024-01-08T05:07:35.401Z,28.52
2024-01-08T05:10:41.762Z,56.47
2024-01-08T05:13:48.021Z,58.97
2024-01-08T05:16:54.308Z,27.45
2024-01-08T05:19:58.725Z,50.42
2024-01-08T05:23:05.689Z,58.42
2024-01-08T05:26:10.737Z,30.55
2024-01-08T05:29:14.624Z,25.67
2024-01-08T05:32:19.708Z,20.83
2024-01-08T05:35:25.500Z,9.93
2024-01-08T05:38:31.755Z,12.52
2024-01-08T05:41:41.767Z,24.00
2024-01-08T05:44:47.831Z,31.02
2024-01-08T05:47:56.655Z,56.55
2024-01-08T05:51:01.303Z,26.10
2024-01-08T05:54:05.786Z,21.92
2024-01-08T05:57:09.971Z,29.25
2024-01-08T06:00:16.609Z,27.55
2024-01-08T06:03:23.401Z,17.23
2024-01-08T06:06:29.280Z,31.20
2024-01-08T06:09:35.823Z,25.50
2024-01-08T06:12:41.470Z,32.38
2024-01-08T06:15:48.341Z,34.67
2024-01-08T06:18:54.276Z,42.88
2024-01-08T06:22:00.786Z,18.15
2024-01-08T06:25:07.162Z,37.38
2024-01-08T06:28:12.813Z,36.75
2024-01-08T06:31:18.691Z,40.20
2024-01-08T06:34:24.701Z,18.02
2024-01-08T06:37:30.066Z,13.38
2024-01-08T06:40:36.356Z,11.02
2024-01-08T06:43:42.912Z,8.52
2024-01-08T06:47:01.945Z,9.90
2024-01-08T06:50:07.561Z,9.07
2024-01-08T06:53:14.236Z,7.57
2024-01-08T06:56:18.135Z,6.40
2024-01-08T06:59:21.630Z,5.75
2024-01-08T07:02:24.796Z,10.27
2024-01-08T07:05:28.458Z,10.82
2024-01-08T07:08:33.565Z,12.88
2024-01-08T07:11:39.313Z,19.13
2024-01-08T07:14:46.999Z,22.33
2024-01-08T07:17:51.042Z,10.93
2024-01-08T07:20:54.220Z,17.58
2024-01-08T07:23:57.845Z,25.02
2024-01-08T07:27:00.830Z,21.13
2024-01-08T07:30:06.892Z,21.45
2024-01-08T07:33:13.128Z,22.60
2024-01-08T07:36:19.441Z,38.30
2024-01-08T07:39:25.274Z,36.55
2024-01-08T07:42:31.326Z,37.78
2024-01-08T07:45:38.127Z,34.35
2024-01-08T07:48:44.115Z,42.55
2024-01-08T07:51:50.540Z,47.58
2024-01-08T07:54:57.538Z,46.05
2024-01-08T07:58:04.113Z,30.83
2024-01-08T08:01:15.303Z,21.23
2024-01-08T08:04:21.632Z,45.28
2024-01-08T08:07:27.926Z,55.80
2024-01-08T08:10:34.693Z,44.88
2024-01-08T08:13:41.276Z,51.58
2024-01-08T08:16:47.332Z,57.45
2024-01-08T08:19:53.825Z,43.08
2024-01-08T08:23:01.525Z,62.25
2024-01-08T08:26:08.318Z,51.90
2024-01-08T08:29:15.513Z,55.33
2024-01-08T08:32:19.779Z,32.63
2024-01-08T08:39:09.347Z,43.72
2024-01-08T08:42:17.604Z,37.08
2024-01-08T08:45:23.649Z,43.17
2024-01-08T08:48:32.291Z,52.45
2024-01-08T08:51:39.820Z,43.65
2024-01-08T08:54:44.017Z,37.65
2024-01-08T09:05:25.723Z,7.07
2024-01-08T09:08:39.560Z,4.47
2024-01-08T09:15:14.224Z,9.15
2024-01-08T09:18:21.648Z,8.05
2024-01-08T09:21:25.574Z,7.72
2024-01-08T09:24:31.543Z,9.60
2024-01-08T09:27:39.913Z,7.05
2024-01-08T09:30:43.657Z,7.88
2024-01-08T09:33:47.821Z,15.10
2024-01-08T09:36:52.561Z,13.63
2024-01-08T09:39:56.050Z,5.20
2024-01-08T09:43:06.097Z,12.73
2024-01-08T09:50:41.207Z,10.25
2024-01-08T09:54:06.233Z,12.70
2024-01-08T10:00:45.058Z,21.25
2024-01-08T10:04:17.959Z,12.63
2024-01-08T10:07:25.577Z,18.90
2024-01-08T10:10:39.719Z,26.10
2024-01-08T10:17:16.582Z,17.77
2024-01-08T10:20:22.041Z,13.95
2024-01-08T10:23:33.980Z,18.05
2024-01-08T10:31:05.440Z,17.90
2024-01-08T10:34:40.557Z,17.98
2024-01-08T10:37:50.895Z,24.67
2024-01-08T10:40:58.039Z,19.70
2024-01-08T10:44:02.162Z,15.30
2024-01-08T10:47:13.519Z,17.13
2024-01-08T10:50:33.496Z,24.25
2024-01-08T10:53:55.368Z,28.27
2024-01-08T10:57:02.528Z,21.75
2024-01-08T11:00:14.967Z,22.73
2024-01-08T11:03:19.172Z,16.33
2024-01-08T11:06:25.580Z,16.20
2024-01-08T11:13:00.529Z,17.80
2024-01-08T11:16:09.941Z,18.00
2024-01-08T11:19:24.600Z,24.00
2024-01-08T11:22:30.571Z,17.02
2024-01-08T11:25:34.787Z,14.40
2024-01-08T11:28:43.470Z,21.67
2024-01-08T11:31:50.558Z,13.98
2024-01-08T11:34:59.463Z,20.30
2024-01-08T11:38:26.380Z,20.15
2024-01-08T11:41:35.379Z,18.08
2024-01-08T11:44:42.110Z,16.38
2024-01-08T11:47:49.112Z,16.20
2024-01-08T11:50:55.549Z,10.32
2024-01-08T11:54:05.945Z,19.65
2024-01-08T11:57:11.356Z,19.38
2024-01-08T12:00:17.544Z,20.60
2024-01-08T12:03:25.724Z,21.48
2024-01-08T12:06:31.019Z,12.25
2024-01-08T12:13:13.996Z,17.77
2024-01-08T12:16:19.102Z,16.83
2024-01-08T12:19:34.955Z,12.52
2024-01-08T12:22:43.424Z,12.18
2024-01-08T12:25:57.168Z,12.43
2024-01-08T12:29:04.264Z,16.15
2024-01-08T12:32:12.361Z,11.48
2024-01-08T12:35:21.233Z,12.75
2024-01-08T12:38:25.393Z,22.05
2024-01-08T12:41:37.195Z,15.35
2024-01-08T12:44:42.821Z,11.77
2024-01-08T12:48:02.187Z,13.10
2024-01-08T12:51:15.774Z,18.40
2024-01-08T12:54:21.040Z,14.73
2024-01-08T12:57:32.046Z,21.35
2024-01-08T13:18:57.484Z,7.45
2024-01-08T13:25:55.816Z,16.35
2024-01-08T13:36:39.233Z,14.50
2024-01-08T13:43:15.027Z,9.95
2024-01-08T13:46:19.275Z,4.38
2024-01-08T13:49:24.237Z,10.90
2024-01-08T13:52:54.696Z,14.30
2024-01-08T13:56:23.200Z,16.55
2024-01-08T14:03:18.226Z,8.40
2024-01-08T14:06:22.243Z,14.27
2024-01-08T14:09:26.315Z,7.78
2024-01-08T14:22:46.701Z,8.35
2024-01-08T14:32:49.530Z,8.35
2024-01-08T14:39:38.263Z,9.85
2024-01-08T14:42:45.780Z,7.43
2024-01-08T14:45:52.411Z,7.45
2024-01-08T14:49:23.588Z,8.25
2024-01-08T14:56:22.929Z,10.38
2024-01-08T15:10:52.273Z,12.15
2024-01-08T15:17:33.828Z,10.38
2024-01-08T15:27:56.433Z,11.40
2024-01-08T15:35:24.508Z,11.10
2024-01-08T15:42:09.269Z,12.85
2024-01-08T15:49:10.616Z,20.13
2024-01-08T15:55:50.322Z,16.25
2024-01-08T15:59:04.330Z,6.88
2024-01-08T16:02:21.122Z,6.07
2024-01-08T16:05:57.997Z,9.52
2024-01-08T16:09:41.360Z,9.40
2024-01-08T16:12:58.908Z,12.63
2024-01-08T16:16:28.337Z,13.80
2024-01-08T16:19:48.925Z,8.55
2024-01-08T16:26:28.109Z,9.95
2024-01-08T16:33:30.369Z,15.57
2024-01-08T16:40:24.994Z,7.90
2024-01-08T16:43:40.161Z,17.02
2024-01-08T16:46:58.497Z,15.68
2024-01-08T17:09:19.681Z,14.27
2024-01-08T17:16:27.690Z,12.75
2024-01-08T17:20:07.646Z,23.00
2024-01-08T17:27:04.145Z,7.65
2024-01-08T17:30:38.244Z,10.73
2024-01-08T17:34:07.947Z,17.75
2024-01-08T17:37:31.901Z,15.27
2024-01-08T17:44:17.971Z,6.65
2024-01-08T17:47:31.849Z,4.47
2024-01-08T17:50:54.021Z,8.02
2024-01-08T17:54:29.956Z,5.43
2024-01-08T18:01:42.839Z,12.55
2024-01-08T18:08:37.105Z,8.50
2024-01-08T18:16:01.183Z,5.35
2024-01-08T18:27:02.209Z,6.03
2024-01-08T18:31:03.553Z,7.90
2024-01-08T18:34:34.563Z,5.32
2024-01-08T18:38:31.542Z,8.57
2024-01-08T18:52:54.767Z,4.85
2024-01-08T18:56:21.424Z,13.63
2024-01-08T18:59:42.754Z,8.90
2024-01-08T19:14:10.673Z,10.60
2024-01-08T19:40:13.220Z,3.22
2024-01-08T19:51:13.351Z,4.22
2024-01-08T19:58:31.852Z,17.02
2024-01-08T20:02:02.051Z,3.78
2024-01-08T20:09:06.252Z,5.45
2024-01-08T20:12:29.616Z,2.78
2024-01-08T20:19:35.548Z,5.03
2024-01-08T20:26:31.081Z,7.18
2024-01-08T20:29:43.163Z,4.93
2024-01-08T20:33:08.525Z,4.88
2024-01-08T20:36:25.926Z,8.60
2024-01-08T20:39:57.745Z,7.80
2024-01-08T20:43:10.679Z,4.25
2024-01-08T20:46:25.150Z,5.47
2024-01-08T20:49:43.404Z,9.50
2024-01-08T20:53:05.227Z,10.93
2024-01-08T21:00:01.978Z,5.43
2024-01-08T21:03:18.468Z,17.15
2024-01-08T21:06:53.479Z,6.30
2024-01-08T21:14:36.480Z,9.13
2024-01-08T21:18:18.102Z,5.40
2024-01-08T21:21:27.930Z,10.20
2024-01-08T21:24:34.522Z,19.42
2024-01-08T21:27:48.356Z,6.22
2024-01-08T21:31:10.767Z,7.75
2024-01-08T21:34:28.295Z,11.90
2024-01-08T21:37:40.074Z,28.48
2024-01-08T21:40:46.805Z,42.53
2024-01-08T21:44:03.052Z,32.33
2024-01-08T21:47:11.786Z,43.25
2024-01-08T21:50:22.631Z,74.72
2024-01-08T21:53:32.651Z,63.03
2024-01-08T21:56:40.577Z,53.35
2024-01-08T21:59:52.323Z,62.72
2024-01-08T22:03:04.884Z,53.20
2024-01-08T22:06:14.961Z,39.63
2024-01-08T22:09:27.749Z,32.00
2024-01-08T22:12:43.049Z,42.67
2024-01-08T22:19:27.642Z,36.45
2024-01-08T22:22:37.350Z,48.65
2024-01-08T22:25:47.743Z,40.97
2024-01-08T22:29:01.049Z,46.97
2024-01-08T22:43:02.000Z,37.28
2024-01-08T22:46:06.406Z,36.15
2024-01-08T22:52:14.677Z,22.70
2024-01-08T22:58:22.098Z,28.33
2024-01-08T23:01:25.624Z,23.10
2024-01-08T23:04:29.763Z,20.83
2024-01-08T23:07:32.958Z,21.67
2024-01-08T23:10:38.727Z,26.45
2024-01-08T23:13:44.042Z,33.15
2024-01-08T23:16:50.842Z,30.00
2024-01-08T23:19:56.587Z,30.52
2024-01-08T23:23:04.192Z,26.67
2024-01-08T23:26:10.275Z,34.05
2024-01-08T23:29:16.752Z,34.25
2024-01-08T23:32:22.382Z,53.55
2024-01-08T23:35:28.845Z,22.73
2024-01-08T23:38:35.477Z,19.13
2024-01-08T23:41:41.948Z,18.20
2024-01-08T23:44:48.024Z,21.35
2024-01-08T23:47:54.304Z,18.55
2024-01-08T23:50:59.156Z,21.80
2024-01-08T23:54:04.708Z,19.02
2024-01-08T23:57:11.678Z,34.95
